createdAt,value
2023-02-12T00:01:10.024Z,19.80
2023-02-12T00:03:39.498Z,21.30
2023-02-12T00:06:08.300Z,21.30
2023-02-12T00:08:39.563Z,21.45
2023-02-12T00:11:12.505Z,20.60
2023-02-12T00:13:43.651Z,20.23
2023-02-12T00:16:14.001Z,21.00
2023-02-12T00:18:42.583Z,20.23
2023-02-12T00:21:11.027Z,20.73
2023-02-12T00:23:41.197Z,22.23
2023-02-12T00:26:11.174Z,21.17
2023-02-12T00:28:41.837Z,20.27
2023-02-12T00:31:12.246Z,21.25
2023-02-12T00:33:42.923Z,21.95
2023-02-12T00:36:14.862Z,22.17
2023-02-12T00:38:45.099Z,22.88
2023-02-12T00:41:13.681Z,23.02
2023-02-12T00:43:41.623Z,22.70
2023-02-12T00:46:10.668Z,22.35
2023-02-12T00:48:38.874Z,22.27
2023-02-12T00:51:08.168Z,18.80
2023-02-12T00:53:36.510Z,22.73
2023-02-12T00:56:06.563Z,22.48
2023-02-12T00:58:35.585Z,21.30
2023-02-12T01:01:03.573Z,22.98
2023-02-12T01:03:32.680Z,20.10
2023-02-12T01:06:01.265Z,23.63
2023-02-12T01:08:30.255Z,21.33
2023-02-12T01:11:01.044Z,20.40
2023-02-12T01:13:32.361Z,22.27
2023-02-12T01:16:10.876Z,23.27
2023-02-12T01:18:40.382Z,20.60
2023-02-12T01:21:12.930Z,22.92
2023-02-12T01:23:41.819Z,22.23
2023-02-12T01:26:10.972Z,19.25
2023-02-12T01:28:43.931Z,21.70
2023-02-12T01:31:14.010Z,22.50
2023-02-12T01:33:42.907Z,22.17
2023-02-12T01:36:13.166Z,22.55
2023-02-12T01:38:41.263Z,22.75
2023-02-12T01:41:11.208Z,21.40
2023-02-12T01:43:42.276Z,21.42
2023-02-12T01:46:14.331Z,20.45
2023-02-12T01:48:45.417Z,20.98
2023-02-12T01:51:20.955Z,22.25
2023-02-12T01:53:53.982Z,20.15
2023-02-12T01:56:23.782Z,21.52
2023-02-12T01:58:56.016Z,23.40
2023-02-12T02:01:28.717Z,21.67
2023-02-12T02:04:01.942Z,21.67
2023-02-12T02:06:34.139Z,18.63
2023-02-12T02:09:05.105Z,20.30
2023-02-12T02:12:03.380Z,22.60
2023-02-12T02:14:35.810Z,22.35
2023-02-12T02:17:36.049Z,21.83
2023-02-12T02:20:27.471Z,22.58
2023-02-12T02:23:10.754Z,20.58
2023-02-12T02:26:04.006Z,16.65
2023-02-12T02:28:50.468Z,20.58
2023-02-12T02:31:26.433Z,20.80
2023-02-12T02:33:59.998Z,19.40
2023-02-12T02:36:41.434Z,21.20
2023-02-12T02:39:24.979Z,22.65
2023-02-12T02:42:00.066Z,18.95
2023-02-12T02:44:36.990Z,17.80
2023-02-12T02:47:11.100Z,22.30
2023-02-12T02:49:44.949Z,21.02
2023-02-12T02:52:18.524Z,22.77
2023-02-12T02:54:52.280Z,22.48
2023-02-12T02:57:26.362Z,21.20
2023-02-12T02:59:58.559Z,21.35
2023-02-12T03:02:31.163Z,21.13
2023-02-12T03:05:02.743Z,23.08
2023-02-12T03:07:36.259Z,20.75
2023-02-12T03:10:09.549Z,22.02
2023-02-12T03:12:42.438Z,21.75
2023-02-12T03:15:16.915Z,20.30
2023-02-12T03:17:48.966Z,20.80
2023-02-12T03:20:20.994Z,21.77
2023-02-12T03:22:52.447Z,23.77
2023-02-12T03:25:25.265Z,20.80
2023-02-12T03:27:59.282Z,21.52
2023-02-12T03:30:39.697Z,20.70
2023-02-12T03:33:18.182Z,19.88
2023-02-12T03:35:56.696Z,19.38
2023-02-12T03:38:35.479Z,19.55
2023-02-12T03:41:10.654Z,19.92
2023-02-12T03:43:50.394Z,21.25
2023-02-12T03:46:24.599Z,18.85
2023-02-12T03:49:01.955Z,19.52
2023-02-12T03:51:36.500Z,20.20
2023-02-12T03:54:06.881Z,19.83
2023-02-12T03:56:40.926Z,19.98
2023-02-12T03:59:08.961Z,21.70
2023-02-12T04:01:37.638Z,21.60
2023-02-12T04:04:10.004Z,21.88
2023-02-12T04:06:38.388Z,22.33
2023-02-12T04:09:09.148Z,22.33
2023-02-12T04:11:48.006Z,22.77
2023-02-12T04:14:25.940Z,21.58
2023-02-12T04:17:04.758Z,21.52
2023-02-12T04:19:44.784Z,21.30
2023-02-12T04:22:24.941Z,22.13
2023-02-12T04:25:05.397Z,21.40
2023-02-12T04:27:41.146Z,20.73
2023-02-12T04:30:18.939Z,21.90
2023-02-12T04:32:51.707Z,19.60
2023-02-12T04:35:25.375Z,20.60
2023-02-12T04:37:59.885Z,21.80
2023-02-12T04:40:28.284Z,20.20
2023-02-12T04:42:56.229Z,20.48
2023-02-12T04:45:29.583Z,19.30
2023-02-12T04:47:58.103Z,19.75
2023-02-12T04:50:28.749Z,19.55
2023-02-12T04:52:56.733Z,20.40
2023-02-12T04:55:25.232Z,20.63
2023-02-12T04:57:53.687Z,21.00
2023-02-12T05:00:22.152Z,21.20
2023-02-12T05:02:51.273Z,20.55
2023-02-12T05:05:19.731Z,19.08
2023-02-12T05:07:49.351Z,20.88
2023-02-12T05:10:18.161Z,22.45
2023-02-12T05:12:46.509Z,21.13
2023-02-12T05:15:14.534Z,20.42
2023-02-12T05:17:42.457Z,20.80
2023-02-12T05:20:12.868Z,21.15
2023-02-12T05:25:10.461Z,20.98
2023-02-12T05:27:39.472Z,20.70
2023-02-12T05:30:09.561Z,20.35
2023-02-12T05:32:37.948Z,23.67
2023-02-12T05:35:07.068Z,21.67
2023-02-12T05:37:36.286Z,21.20
2023-02-12T05:40:05.658Z,22.75
2023-02-12T05:42:36.470Z,22.15
2023-02-12T05:45:04.729Z,22.33
2023-02-12T05:47:32.627Z,23.20
2023-02-12T05:50:01.469Z,23.48
2023-02-12T05:52:29.395Z,22.25
2023-02-12T05:54:57.743Z,21.70
2023-02-12T05:57:26.222Z,22.40
2023-02-12T05:59:56.071Z,21.53
2023-02-12T06:02:24.529Z,22.10
2023-02-12T06:04:52.964Z,23.35
2023-02-12T06:07:21.516Z,23.02
2023-02-12T06:09:49.469Z,24.15
2023-02-12T06:12:18.478Z,23.65
2023-02-12T06:14:46.381Z,24.27
2023-02-12T06:17:16.110Z,24.40
2023-02-12T06:19:44.481Z,25.05
2023-02-12T06:22:12.364Z,25.38
2023-02-12T06:24:40.189Z,25.50
2023-02-12T06:27:09.020Z,25.77
2023-02-12T06:29:36.957Z,27.23
2023-02-12T06:34:56.597Z,26.95
2023-02-12T06:37:24.969Z,27.23
2023-02-12T06:39:52.930Z,26.63
2023-02-12T06:42:20.901Z,28.52
2023-02-12T06:44:52.585Z,28.73
2023-02-12T06:47:20.923Z,28.02
2023-02-12T06:49:50.643Z,29.02
2023-02-12T06:52:18.573Z,29.58
2023-02-12T06:54:46.397Z,29.67
2023-02-12T06:57:15.331Z,30.52
2023-02-12T06:59:43.249Z,27.98
2023-02-12T07:02:12.261Z,30.63
2023-02-12T07:04:41.529Z,30.83
2023-02-12T07:09:39.591Z,30.30
2023-02-12T07:12:09.159Z,30.15
2023-02-12T07:14:37.235Z,31.00
2023-02-12T07:17:05.665Z,32.10
2023-02-12T07:19:34.001Z,32.65
2023-02-12T07:22:01.961Z,32.28
2023-02-12T07:24:32.402Z,31.05
2023-02-12T07:27:00.354Z,29.20
2023-02-12T07:29:28.341Z,31.48
2023-02-12T07:31:58.539Z,29.38
2023-02-12T07:34:26.463Z,30.48
2023-02-12T07:36:57.319Z,31.30
2023-02-12T07:39:25.876Z,29.75
2023-02-12T07:41:57.185Z,28.23
2023-02-12T07:44:26.032Z,28.42
2023-02-12T07:46:53.934Z,29.85
2023-02-12T07:49:23.317Z,30.92
2023-02-12T07:51:52.144Z,28.80
2023-02-12T07:54:39.421Z,27.48
2023-02-12T07:57:09.630Z,29.80
2023-02-12T07:59:37.764Z,28.10
2023-02-12T08:02:05.851Z,28.83
2023-02-12T08:04:34.691Z,29.58
2023-02-12T08:07:02.880Z,29.02
2023-02-12T08:09:31.918Z,29.88
2023-02-12T08:12:00.300Z,30.52
2023-02-12T08:14:29.683Z,29.33
2023-02-12T08:16:58.120Z,28.73
2023-02-12T08:19:27.364Z,29.75
2023-02-12T08:21:57.167Z,27.90
2023-02-12T08:24:25.531Z,28.63
2023-02-12T08:26:53.892Z,29.20
2023-02-12T08:29:24.185Z,28.20
2023-02-12T08:31:58.208Z,28.90
2023-02-12T08:34:27.747Z,28.35
2023-02-12T08:36:56.828Z,28.05
2023-02-12T08:39:27.447Z,29.02
2023-02-12T08:41:56.276Z,26.10
2023-02-12T08:44:25.220Z,26.08
2023-02-12T08:46:56.443Z,26.20
2023-02-12T08:49:27.150Z,26.45
2023-02-12T08:51:57.500Z,26.70
2023-02-12T08:56:56.374Z,24.50
2023-02-12T08:59:25.670Z,25.80
2023-02-12T09:01:55.502Z,24.98
2023-02-12T09:04:26.939Z,28.02
2023-02-12T09:06:55.452Z,27.55
2023-02-12T09:09:23.983Z,25.33
2023-02-12T09:11:52.977Z,27.47
2023-02-12T09:14:24.092Z,25.40
2023-02-12T09:16:53.871Z,26.55
2023-02-12T09:19:23.853Z,24.73
2023-02-12T09:21:56.036Z,24.88
2023-02-12T09:24:24.940Z,26.35
2023-02-12T09:26:52.855Z,24.88
2023-02-12T09:29:21.803Z,25.48
2023-02-12T09:31:49.777Z,28.77
2023-02-12T09:34:19.879Z,25.73
2023-02-12T09:36:49.613Z,25.52
2023-02-12T09:39:20.152Z,26.50
2023-02-12T09:42:09.209Z,27.65
2023-02-12T09:44:44.939Z,26.02
2023-02-12T09:47:18.831Z,26.45
2023-02-12T09:49:59.812Z,26.02
2023-02-12T09:52:31.127Z,26.90
2023-02-12T09:55:00.295Z,25.92
2023-02-12T09:57:33.997Z,25.27
2023-02-12T10:00:06.957Z,24.40
2023-02-12T10:02:37.405Z,23.17
2023-02-12T10:05:06.434Z,23.17
2023-02-12T10:07:55.268Z,23.02
2023-02-12T10:10:37.299Z,24.55
2023-02-12T10:13:10.137Z,22.30
2023-02-12T10:15:41.791Z,21.42
2023-02-12T10:18:35.569Z,19.05
2023-02-12T10:21:16.487Z,20.85
2023-02-12T10:24:01.563Z,18.83
2023-02-12T10:26:33.075Z,17.85
2023-02-12T10:29:12.251Z,18.48
2023-02-12T10:31:46.007Z,16.75
2023-02-12T10:34:21.059Z,16.85
2023-02-12T10:36:53.293Z,17.60
2023-02-12T10:39:25.572Z,15.48
2023-02-12T10:41:59.714Z,17.33
2023-02-12T10:44:28.780Z,18.20
2023-02-12T10:46:57.278Z,16.95
2023-02-12T10:49:26.022Z,15.75
2023-02-12T10:52:19.337Z,14.40
2023-02-12T10:54:49.828Z,13.27
2023-02-12T10:57:23.882Z,14.07
2023-02-12T10:59:54.216Z,14.43
2023-02-12T11:02:26.248Z,13.27
2023-02-12T11:04:55.520Z,13.70
2023-02-12T11:07:24.793Z,14.27
2023-02-12T11:09:56.474Z,13.38
2023-02-12T11:12:32.678Z,13.38
2023-02-12T11:15:03.096Z,12.80
2023-02-12T11:17:36.939Z,13.50
2023-02-12T11:20:22.909Z,12.85
2023-02-12T11:22:53.012Z,9.13
2023-02-12T11:25:24.648Z,12.00
2023-02-12T11:28:15.368Z,9.43
2023-02-12T11:30:52.967Z,13.82
2023-02-12T11:33:27.765Z,14.10
2023-02-12T11:35:59.333Z,13.63
2023-02-12T11:38:36.997Z,12.10
2023-02-12T11:41:19.762Z,13.50
2023-02-12T11:43:48.015Z,12.18
2023-02-12T11:46:22.728Z,12.77
2023-02-12T11:48:52.290Z,11.52
2023-02-12T11:53:54.606Z,12.10
2023-02-12T11:56:23.971Z,12.15
2023-02-12T11:58:54.417Z,12.13
2023-02-12T12:01:27.813Z,11.63
2023-02-12T12:04:02.227Z,11.23
2023-02-12T12:06:38.539Z,11.68
2023-02-12T12:09:14.708Z,10.45
2023-02-12T12:11:53.759Z,12.70
2023-02-12T12:14:28.210Z,11.35
2023-02-12T12:17:19.324Z,11.27
2023-02-12T12:19:56.408Z,11.02
2023-02-12T12:22:48.972Z,9.80
2023-02-12T12:25:24.899Z,11.40
2023-02-12T12:28:06.214Z,10.13
2023-02-12T12:30:42.843Z,10.25
2023-02-12T12:33:18.516Z,10.05
2023-02-12T12:35:58.222Z,9.80
2023-02-12T12:38:39.477Z,8.20
2023-02-12T12:41:18.850Z,7.80
2023-02-12T12:44:00.111Z,7.88
2023-02-12T12:46:36.109Z,6.95
2023-02-12T12:49:30.639Z,7.38
2023-02-12T12:52:34.658Z,8.10
2023-02-12T12:55:15.474Z,7.00
2023-02-12T12:57:52.664Z,7.10
2023-02-12T13:00:33.089Z,6.63
2023-02-12T13:03:15.954Z,6.82
2023-02-12T13:06:12.465Z,6.45
2023-02-12T13:08:51.415Z,6.20
2023-02-12T13:11:34.903Z,7.13
2023-02-12T13:14:27.623Z,4.85
2023-02-12T13:17:08.268Z,5.72
2023-02-12T13:19:48.223Z,5.07
2023-02-12T13:22:25.312Z,5.60
2023-02-12T13:25:01.965Z,5.60
2023-02-12T13:27:36.340Z,4.93
2023-02-12T13:30:09.158Z,5.20
2023-02-12T13:32:43.647Z,5.47
2023-02-12T13:35:17.897Z,5.63
2023-02-12T13:37:50.149Z,5.30
2023-02-12T13:40:21.331Z,4.93
2023-02-12T13:42:55.254Z,5.18
2023-02-12T13:45:32.655Z,5.65
2023-02-12T13:48:29.385Z,6.45
2023-02-12T13:51:03.217Z,5.15
2023-02-12T13:53:37.966Z,4.72
2023-02-12T13:56:13.090Z,4.00
2023-02-12T13:58:51.331Z,6.18
2023-02-12T14:01:39.550Z,3.92
2023-02-12T14:04:28.030Z,3.30
2023-02-12T14:07:01.044Z,3.45
2023-02-12T14:09:36.799Z,4.03
2023-02-12T14:12:07.806Z,3.72
2023-02-12T14:14:38.879Z,3.58
2023-02-12T14:17:41.784Z,3.10
2023-02-12T14:20:27.107Z,3.30
2023-02-12T14:23:21.943Z,3.22
2023-02-12T14:25:58.784Z,3.35
2023-02-12T14:28:34.631Z,3.85
2023-02-12T14:31:42.710Z,3.17
2023-02-12T14:34:48.304Z,3.28
2023-02-12T14:37:37.639Z,3.50
2023-02-12T14:40:45.264Z,3.70
2023-02-12T14:43:55.366Z,3.55
2023-02-12T14:46:54.087Z,4.10
2023-02-12T14:49:28.770Z,3.80
2023-02-12T14:52:01.522Z,4.28
2023-02-12T14:54:36.844Z,3.78
2023-02-12T14:57:09.544Z,4.57
2023-02-12T14:59:43.019Z,3.85
2023-02-12T15:02:17.343Z,3.85
2023-02-12T15:04:47.427Z,3.97
2023-02-12T15:07:23.164Z,4.03
2023-02-12T15:09:58.898Z,4.13
2023-02-12T15:12:32.721Z,3.80
2023-02-12T15:15:07.896Z,3.90
2023-02-12T15:17:40.931Z,4.00
2023-02-12T15:20:20.935Z,4.78
2023-02-12T15:22:48.941Z,4.70
2023-02-12T15:25:24.041Z,4.20
2023-02-12T15:27:55.346Z,4.53
2023-02-12T15:30:27.218Z,5.70
2023-02-12T15:32:57.747Z,4.90
2023-02-12T15:35:30.306Z,4.15
2023-02-12T15:38:01.144Z,4.00
2023-02-12T15:40:33.362Z,3.95
2023-02-12T15:43:03.077Z,4.97
2023-02-12T15:45:33.010Z,3.63
2023-02-12T15:50:54.012Z,3.83
2023-02-12T15:53:24.662Z,4.13
2023-02-12T15:55:54.781Z,4.45
2023-02-12T15:58:26.251Z,4.22
2023-02-12T16:00:56.304Z,4.55
2023-02-12T16:03:26.480Z,4.72
2023-02-12T16:06:00.810Z,5.13
2023-02-12T16:08:30.249Z,5.13
2023-02-12T16:11:14.152Z,4.57
2023-02-12T16:13:46.133Z,5.30
2023-02-12T16:16:28.212Z,4.68
2023-02-12T16:19:08.441Z,4.82
2023-02-12T16:21:39.818Z,4.55
2023-02-12T16:24:22.880Z,4.45
2023-02-12T16:26:52.944Z,4.70
2023-02-12T16:29:22.377Z,5.20
2023-02-12T16:31:55.855Z,4.90
2023-02-12T16:34:36.541Z,5.50
2023-02-12T16:37:41.997Z,5.80
2023-02-12T16:40:27.245Z,5.60
2023-02-12T16:43:04.558Z,5.38
2023-02-12T16:45:38.228Z,5.85
2023-02-12T16:48:23.501Z,6.00
2023-02-12T16:50:55.563Z,6.20
2023-02-12T16:53:35.123Z,5.97
2023-02-12T16:56:06.029Z,5.68
2023-02-12T16:58:36.382Z,5.82
2023-02-12T17:01:05.806Z,5.60
2023-02-12T17:03:34.817Z,5.07
2023-02-12T17:06:03.600Z,4.85
2023-02-12T17:08:31.481Z,5.88
2023-02-12T17:11:00.063Z,5.85
2023-02-12T17:13:28.578Z,5.00
2023-02-12T17:16:01.577Z,5.30
2023-02-12T17:18:33.352Z,5.22
2023-02-12T17:21:03.807Z,4.90
2023-02-12T17:23:33.143Z,5.55
2023-02-12T17:26:01.252Z,5.25
2023-02-12T17:28:32.039Z,5.78
2023-02-12T17:31:03.107Z,5.93
2023-02-12T17:33:31.118Z,7.25
2023-02-12T17:35:59.654Z,6.78
2023-02-12T17:38:28.333Z,6.35
2023-02-12T17:40:56.541Z,6.32
2023-02-12T17:43:26.980Z,7.00
2023-02-12T17:45:55.513Z,7.57
2023-02-12T17:48:25.033Z,6.78
2023-02-12T17:50:56.348Z,6.55
2023-02-12T17:53:24.672Z,5.95
2023-02-12T17:55:52.675Z,6.65
2023-02-12T17:58:21.580Z,6.18
2023-02-12T18:00:49.498Z,6.70
2023-02-12T18:03:18.267Z,6.65
2023-02-12T18:05:47.723Z,6.78
2023-02-12T18:08:15.667Z,5.95
2023-02-12T18:10:44.509Z,6.93
2023-02-12T18:13:14.835Z,6.57
2023-02-12T18:15:43.678Z,8.02
2023-02-12T18:18:17.160Z,7.15
2023-02-12T18:20:45.239Z,6.85
2023-02-12T18:23:15.151Z,6.63
2023-02-12T18:25:44.944Z,5.82
2023-02-12T18:28:13.658Z,5.80
2023-02-12T18:30:43.280Z,5.93
2023-02-12T18:33:12.635Z,5.90
2023-02-12T18:35:41.976Z,5.75
2023-02-12T18:38:10.728Z,6.47
2023-02-12T18:40:42.531Z,7.28
2023-02-12T18:43:11.048Z,8.13
2023-02-12T18:45:40.531Z,7.20
2023-02-12T18:50:39.013Z,6.70
2023-02-12T18:53:07.640Z,6.70
2023-02-12T18:55:37.803Z,7.07
2023-02-12T18:58:07.330Z,6.88
2023-02-12T19:00:36.243Z,6.57
2023-02-12T19:03:04.581Z,7.32
2023-02-12T19:05:32.767Z,8.30
2023-02-12T19:08:02.522Z,7.47
2023-02-12T19:10:30.876Z,7.13
2023-02-12T19:12:59.258Z,7.72
2023-02-12T19:15:29.881Z,7.13
2023-02-12T19:17:58.470Z,6.75
2023-02-12T19:20:27.532Z,6.50
2023-02-12T19:22:56.565Z,7.50
2023-02-12T19:25:25.368Z,6.82
2023-02-12T19:27:53.554Z,7.25
2023-02-12T19:30:22.364Z,7.07
2023-02-12T19:32:51.748Z,7.03
2023-02-12T19:37:48.787Z,7.47
2023-02-12T19:40:17.231Z,6.50
2023-02-12T19:42:45.911Z,7.28
2023-02-12T19:45:14.449Z,7.00
2023-02-12T19:47:43.134Z,7.45
2023-02-12T19:50:35.344Z,6.23
2023-02-12T19:53:04.267Z,6.03
2023-02-12T19:55:32.295Z,6.07
2023-02-12T19:58:01.772Z,5.32
2023-02-12T20:00:30.243Z,5.93
2023-02-12T20:02:58.431Z,5.80
2023-02-12T20:05:29.000Z,5.65
2023-02-12T20:08:01.117Z,5.38
2023-02-12T20:10:29.847Z,5.68
2023-02-12T20:12:58.195Z,4.72
2023-02-12T20:15:27.035Z,5.15
2023-02-12T20:17:56.344Z,5.10
2023-02-12T20:20:24.739Z,5.13
2023-02-12T20:22:53.127Z,6.63
2023-02-12T20:25:24.516Z,6.72
2023-02-12T20:27:53.109Z,7.13
2023-02-12T20:30:21.776Z,7.05
2023-02-12T20:32:50.744Z,7.72
2023-02-12T20:35:19.245Z,6.25
2023-02-12T20:37:48.040Z,6.32
2023-02-12T20:40:15.990Z,5.85
2023-02-12T20:42:47.406Z,6.13
2023-02-12T20:45:15.817Z,5.85
2023-02-12T20:47:43.859Z,5.25
2023-02-12T20:50:13.297Z,5.25
2023-02-12T20:52:42.775Z,5.25
2023-02-12T20:57:39.305Z,5.68
2023-02-12T21:00:10.266Z,5.78
2023-02-12T21:02:40.377Z,5.93
2023-02-12T21:05:09.650Z,5.03
2023-02-12T21:07:38.175Z,5.75
2023-02-12T21:10:08.138Z,5.60
2023-02-12T21:12:36.645Z,5.60
2023-02-12T21:15:09.737Z,5.45
2023-02-12T21:17:37.876Z,5.93
2023-02-12T21:20:08.136Z,5.13
2023-02-12T21:22:38.609Z,5.68
2023-02-12T21:25:07.545Z,6.18
2023-02-12T21:27:40.965Z,5.80
2023-02-12T21:30:11.470Z,6.35
2023-02-12T21:32:40.313Z,7.00
2023-02-12T21:35:09.465Z,6.15
2023-02-12T21:37:38.270Z,6.40
2023-02-12T21:40:08.571Z,7.28
2023-02-12T21:42:37.866Z,6.93
2023-02-12T21:45:07.212Z,6.03
2023-02-12T21:47:38.636Z,6.15
2023-02-12T21:50:09.646Z,6.40
2023-02-12T21:52:38.441Z,6.70
2023-02-12T21:55:07.716Z,6.97
2023-02-12T21:57:36.018Z,7.07
2023-02-12T22:00:04.686Z,6.68
2023-02-12T22:02:42.763Z,7.05
2023-02-12T22:05:11.080Z,6.55
2023-02-12T22:07:39.434Z,6.65
2023-02-12T22:10:12.146Z,7.50
2023-02-12T22:12:40.226Z,7.10
2023-02-12T22:15:09.632Z,7.10
2023-02-12T22:17:38.845Z,7.05
2023-02-12T22:20:09.771Z,7.47
2023-02-12T22:22:38.690Z,6.78
2023-02-12T22:25:07.830Z,6.53
2023-02-12T22:27:35.977Z,7.00
2023-02-12T22:30:04.222Z,6.82
2023-02-12T22:32:33.307Z,6.55
2023-02-12T22:35:01.258Z,6.63
2023-02-12T22:37:31.556Z,6.85
2023-02-12T22:39:59.560Z,6.43
2023-02-12T22:42:27.485Z,6.05
2023-02-12T22:44:58.025Z,5.93
2023-02-12T22:47:26.086Z,6.47
2023-02-12T22:49:54.485Z,6.70
2023-02-12T22:52:22.868Z,6.05
2023-02-12T22:54:52.191Z,6.18
2023-02-12T22:57:20.099Z,6.38
2023-02-12T22:59:49.612Z,5.35
2023-02-12T23:02:17.521Z,6.40
2023-02-12T23:04:45.557Z,6.57
2023-02-12T23:07:13.573Z,6.57
2023-02-12T23:09:42.102Z,6.70
2023-02-12T23:12:12.093Z,6.93
2023-02-12T23:17:09.255Z,6.82
2023-02-12T23:19:37.174Z,6.32
2023-02-12T23:22:06.534Z,8.05
2023-02-12T23:24:34.476Z,7.40
2023-02-12T23:27:02.887Z,7.30
2023-02-12T23:29:32.695Z,8.05
2023-02-12T23:34:28.500Z,7.50
2023-02-12T23:37:17.671Z,7.53
2023-02-12T23:39:46.147Z,7.13
2023-02-12T23:42:14.093Z,7.47
2023-02-12T23:44:43.908Z,7.95
2023-02-12T23:47:11.868Z,7.07
2023-02-12T23:49:40.284Z,7.53
2023-02-12T23:52:08.659Z,7.30
2023-02-12T23:54:36.630Z,7.90
2023-02-12T23:57:04.589Z,7.82
2023-02-12T23:59:33.763Z,7.93
